sensor_id;sensor_type;location;lat;lon;timestamp;temperature;humidity
1351;DHT22;669;50.206;9.998;2022-11-30T00:01:59;5.60;91.80
1351;DHT22;669;50.206;9.998;2022-11-30T00:04:27;5.60;91.50
1351;DHT22;669;50.206;9.998;2022-11-30T00:06:55;5.60;91.80
1351;DHT22;669;50.206;9.998;2022-11-30T00:09:23;5.60;91.40
1351;DHT22;669;50.206;9.998;2022-11-30T00:11:51;5.50;91.40
1351;DHT22;669;50.206;9.998;2022-11-30T00:14:20;5.50;91.50
1351;DHT22;669;50.206;9.998;2022-11-30T00:16:48;5.50;91.70
1351;DHT22;669;50.206;9.998;2022-11-30T00:19:16;5.50;91.70
1351;DHT22;669;50.206;9.998;2022-11-30T00:21:44;5.40;91.50
1351;DHT22;669;50.206;9.998;2022-11-30T00:24:12;5.40;91.60
1351;DHT22;669;50.206;9.998;2022-11-30T00:26:39;5.40;91.80
1351;DHT22;669;50.206;9.998;2022-11-30T00:29:07;5.40;91.80
1351;DHT22;669;50.206;9.998;2022-11-30T00:31:37;5.40;91.90
1351;DHT22;669;50.206;9.998;2022-11-30T00:34:05;5.40;91.90
1351;DHT22;669;50.206;9.998;2022-11-30T00:36:33;5.40;91.90
1351;DHT22;669;50.206;9.998;2022-11-30T00:39:01;5.40;91.80
1351;DHT22;669;50.206;9.998;2022-11-30T00:41:29;5.40;91.90
1351;DHT22;669;50.206;9.998;2022-11-30T00:43:57;5.50;92.00
1351;DHT22;669;50.206;9.998;2022-11-30T00:46:25;5.50;92.00
1351;DHT22;669;50.206;9.998;2022-11-30T00:48:54;5.50;91.90
1351;DHT22;669;50.206;9.998;2022-11-30T00:51:22;5.50;91.90
1351;DHT22;669;50.206;9.998;2022-11-30T00:53:50;5.50;91.90
1351;DHT22;669;50.206;9.998;2022-11-30T00:56:18;5.50;91.90
1351;DHT22;669;50.206;9.998;2022-11-30T00:58:46;5.50;91.90
1351;DHT22;669;50.206;9.998;2022-11-30T01:01:14;5.50;91.90
1351;DHT22;669;50.206;9.998;2022-11-30T01:03:42;5.50;91.90
1351;DHT22;669;50.206;9.998;2022-11-30T01:06:11;5.60;91.90
1351;DHT22;669;50.206;9.998;2022-11-30T01:08:39;5.60;91.90
1351;DHT22;669;50.206;9.998;2022-11-30T01:11:10;5.50;91.90
1351;DHT22;669;50.206;9.998;2022-11-30T01:13:38;5.60;91.90
1351;DHT22;669;50.206;9.998;2022-11-30T01:16:11;5.60;91.90
1351;DHT22;669;50.206;9.998;2022-11-30T01:18:39;5.60;91.90
1351;DHT22;669;50.206;9.998;2022-11-30T01:21:08;5.60;91.90
1351;DHT22;669;50.206;9.998;2022-11-30T01:23:37;5.50;91.90
1351;DHT22;669;50.206;9.998;2022-11-30T01:26:06;5.50;91.90
1351;DHT22;669;50.206;9.998;2022-11-30T01:28:34;5.50;91.90
1351;DHT22;669;50.206;9.998;2022-11-30T01:31:05;5.50;91.90
1351;DHT22;669;50.206;9.998;2022-11-30T01:33:34;5.50;91.90
1351;DHT22;669;50.206;9.998;2022-11-30T01:36:04;5.50;91.90
1351;DHT22;669;50.206;9.998;2022-11-30T01:38:34;5.50;91.90
1351;DHT22;669;50.206;9.998;2022-11-30T01:41:04;5.50;91.90
1351;DHT22;669;50.206;9.998;2022-11-30T01:43:37;5.50;91.90
1351;DHT22;669;50.206;9.998;2022-11-30T01:46:09;5.50;92.10
1351;DHT22;669;50.206;9.998;2022-11-30T01:48:44;5.50;91.60
1351;DHT22;669;50.206;9.998;2022-11-30T01:51:13;5.40;91.80
1351;DHT22;669;50.206;9.998;2022-11-30T01:53:41;5.40;91.80
1351;DHT22;669;50.206;9.998;2022-11-30T01:56:10;5.50;91.90
1351;DHT22;669;50.206;9.998;2022-11-30T01:58:38;5.50;91.90
1351;DHT22;669;50.206;9.998;2022-11-30T02:01:06;5.50;91.90
1351;DHT22;669;50.206;9.998;2022-11-30T02:03:40;5.50;91.80
1351;DHT22;669;50.206;9.998;2022-11-30T02:06:10;5.50;91.90
1351;DHT22;669;50.206;9.998;2022-11-30T02:08:38;5.50;91.90
1351;DHT22;669;50.206;9.998;2022-11-30T02:11:11;5.50;91.70
1351;DHT22;669;50.206;9.998;2022-11-30T02:13:50;5.60;91.70
1351;DHT22;669;50.206;9.998;2022-11-30T02:16:24;5.50;91.70
1351;DHT22;669;50.206;9.998;2022-11-30T02:18:58;5.50;91.60
1351;DHT22;669;50.206;9.998;2022-11-30T02:21:34;5.50;91.60
1351;DHT22;669;50.206;9.998;2022-11-30T02:24:26;5.40;91.50
1351;DHT22;669;50.206;9.998;2022-11-30T02:27:08;5.40;91.60
1351;DHT22;669;50.206;9.998;2022-11-30T02:29:41;5.40;91.60
1351;DHT22;669;50.206;9.998;2022-11-30T02:32:14;5.40;91.60
1351;DHT22;669;50.206;9.998;2022-11-30T02:34:45;5.40;91.50
1351;DHT22;669;50.206;9.998;2022-11-30T02:37:15;5.40;91.80
1351;DHT22;669;50.206;9.998;2022-11-30T02:39:44;5.40;91.70
1351;DHT22;669;50.206;9.998;2022-11-30T02:42:13;5.40;91.70
1351;DHT22;669;50.206;9.998;2022-11-30T02:44:45;5.40;91.80
1351;DHT22;669;50.206;9.998;2022-11-30T02:47:19;5.40;91.80
1351;DHT22;669;50.206;9.998;2022-11-30T02:49:52;5.40;91.80
1351;DHT22;669;50.206;9.998;2022-11-30T02:52:23;5.40;91.80
1351;DHT22;669;50.206;9.998;2022-11-30T02:54:56;5.40;91.70
1351;DHT22;669;50.206;9.998;2022-11-30T02:57:25;5.40;91.80
1351;DHT22;669;50.206;9.998;2022-11-30T02:59:54;5.40;91.80
1351;DHT22;669;50.206;9.998;2022-11-30T03:02:23;5.40;91.80
1351;DHT22;669;50.206;9.998;2022-11-30T03:04:51;5.40;91.80
1351;DHT22;669;50.206;9.998;2022-11-30T03:07:18;5.40;91.80
1351;DHT22;669;50.206;9.998;2022-11-30T03:09:46;5.40;91.80
1351;DHT22;669;50.206;9.998;2022-11-30T03:12:15;5.40;91.80
1351;DHT22;669;50.206;9.998;2022-11-30T03:14:42;5.40;91.80
1351;DHT22;669;50.206;9.998;2022-11-30T03:17:12;5.40;91.80
1351;DHT22;669;50.206;9.998;2022-11-30T03:19:41;5.40;91.80
1351;DHT22;669;50.206;9.998;2022-11-30T03:22:09;5.40;92.10
1351;DHT22;669;50.206;9.998;2022-11-30T03:24:36;5.40;91.80
1351;DHT22;669;50.206;9.998;2022-11-30T03:27:04;5.50;91.90
1351;DHT22;669;50.206;9.998;2022-11-30T03:29:32;5.50;91.90
1351;DHT22;669;50.206;9.998;2022-11-30T03:32:00;5.50;91.90
1351;DHT22;669;50.206;9.998;2022-11-30T03:34:30;5.50;91.80
1351;DHT22;669;50.206;9.998;2022-11-30T03:36:57;5.50;91.70
1351;DHT22;669;50.206;9.998;2022-11-30T03:39:25;5.50;91.60
1351;DHT22;669;50.206;9.998;2022-11-30T03:41:54;5.50;91.60
1351;DHT22;669;50.206;9.998;2022-11-30T03:44:22;5.50;91.60
1351;DHT22;669;50.206;9.998;2022-11-30T03:46:50;5.50;91.60
1351;DHT22;669;50.206;9.998;2022-11-30T03:49:18;5.50;91.60
1351;DHT22;669;50.206;9.998;2022-11-30T03:51:48;5.50;91.50
1351;DHT22;669;50.206;9.998;2022-11-30T03:54:15;5.50;91.50
1351;DHT22;669;50.206;9.998;2022-11-30T03:56:43;5.50;91.50
1351;DHT22;669;50.206;9.998;2022-11-30T03:59:11;5.50;91.60
1351;DHT22;669;50.206;9.998;2022-11-30T04:01:39;5.50;91.60
1351;DHT22;669;50.206;9.998;2022-11-30T04:04:07;5.50;91.60
1351;DHT22;669;50.206;9.998;2022-11-30T04:06:35;5.50;91.60
1351;DHT22;669;50.206;9.998;2022-11-30T04:09:05;5.50;91.60
1351;DHT22;669;50.206;9.998;2022-11-30T04:11:32;5.50;91.60
1351;DHT22;669;50.206;9.998;2022-11-30T04:14:01;5.50;91.60
1351;DHT22;669;50.206;9.998;2022-11-30T04:16:29;5.50;91.50
1351;DHT22;669;50.206;9.998;2022-11-30T04:18:57;5.50;91.50
1351;DHT22;669;50.206;9.998;2022-11-30T04:21:25;5.50;91.40
1351;DHT22;669;50.206;9.998;2022-11-30T04:23:53;5.50;91.50
1351;DHT22;669;50.206;9.998;2022-11-30T04:26:22;5.50;91.60
1351;DHT22;669;50.206;9.998;2022-11-30T04:28:50;5.50;91.50
1351;DHT22;669;50.206;9.998;2022-11-30T04:31:18;5.50;91.40
1351;DHT22;669;50.206;9.998;2022-11-30T04:33:46;5.50;91.40
1351;DHT22;669;50.206;9.998;2022-11-30T04:36:17;5.50;91.40
1351;DHT22;669;50.206;9.998;2022-11-30T04:38:45;5.50;91.50
1351;DHT22;669;50.206;9.998;2022-11-30T04:41:14;5.50;91.50
1351;DHT22;669;50.206;9.998;2022-11-30T04:43:43;5.50;91.40
1351;DHT22;669;50.206;9.998;2022-11-30T04:46:11;5.50;91.40
1351;DHT22;669;50.206;9.998;2022-11-30T04:48:39;5.50;91.40
1351;DHT22;669;50.206;9.998;2022-11-30T04:51:07;5.40;91.50
1351;DHT22;669;50.206;9.998;2022-11-30T04:53:36;5.40;91.50
1351;DHT22;669;50.206;9.998;2022-11-30T04:56:05;5.40;91.20
1351;DHT22;669;50.206;9.998;2022-11-30T04:58:34;5.40;91.30
1351;DHT22;669;50.206;9.998;2022-11-30T05:01:03;5.40;91.30
1351;DHT22;669;50.206;9.998;2022-11-30T05:03:31;5.40;91.50
1351;DHT22;669;50.206;9.998;2022-11-30T05:05:59;5.40;91.50
1351;DHT22;669;50.206;9.998;2022-11-30T05:08:27;5.40;91.50
1351;DHT22;669;50.206;9.998;2022-11-30T05:10:55;5.40;91.40
1351;DHT22;669;50.206;9.998;2022-11-30T05:13:24;5.40;91.40
1351;DHT22;669;50.206;9.998;2022-11-30T05:15:52;5.40;91.30
1351;DHT22;669;50.206;9.998;2022-11-30T05:18:22;5.40;91.30
1351;DHT22;669;50.206;9.998;2022-11-30T05:20:51;5.40;91.50
1351;DHT22;669;50.206;9.998;2022-11-30T05:23:20;5.40;91.70
1351;DHT22;669;50.206;9.998;2022-11-30T05:25:48;5.40;91.70
1351;DHT22;669;50.206;9.998;2022-11-30T05:28:16;5.40;91.80
1351;DHT22;669;50.206;9.998;2022-11-30T05:30:44;5.40;91.80
1351;DHT22;669;50.206;9.998;2022-11-30T05:33:12;5.40;91.80
1351;DHT22;669;50.206;9.998;2022-11-30T05:35:42;5.50;91.90
1351;DHT22;669;50.206;9.998;2022-11-30T05:38:10;5.50;91.70
1351;DHT22;669;50.206;9.998;2022-11-30T05:40:38;5.50;91.70
1351;DHT22;669;50.206;9.998;2022-11-30T05:43:06;5.50;91.80
1351;DHT22;669;50.206;9.998;2022-11-30T05:45:34;5.50;91.70
1351;DHT22;669;50.206;9.998;2022-11-30T05:48:02;5.50;91.60
1351;DHT22;669;50.206;9.998;2022-11-30T05:50:30;5.50;91.70
1351;DHT22;669;50.206;9.998;2022-11-30T05:52:59;5.50;91.40
1351;DHT22;669;50.206;9.998;2022-11-30T05:55:28;5.40;91.40
1351;DHT22;669;50.206;9.998;2022-11-30T05:57:56;5.40;91.50
1351;DHT22;669;50.206;9.998;2022-11-30T06:00:24;5.40;91.40
1351;DHT22;669;50.206;9.998;2022-11-30T06:02:54;5.40;91.40
1351;DHT22;669;50.206;9.998;2022-11-30T06:05:23;5.40;91.30
1351;DHT22;669;50.206;9.998;2022-11-30T06:07:51;5.30;91.30
1351;DHT22;669;50.206;9.998;2022-11-30T06:10:20;5.30;91.50
1351;DHT22;669;50.206;9.998;2022-11-30T06:12:51;5.30;91.80
1351;DHT22;669;50.206;9.998;2022-11-30T06:15:19;5.40;91.80
1351;DHT22;669;50.206;9.998;2022-11-30T06:17:47;5.40;91.80
1351;DHT22;669;50.206;9.998;2022-11-30T06:20:15;5.40;91.80
1351;DHT22;669;50.206;9.998;2022-11-30T06:22:44;5.40;91.80
1351;DHT22;669;50.206;9.998;2022-11-30T06:25:13;5.40;92.10
1351;DHT22;669;50.206;9.998;2022-11-30T06:27:43;5.40;91.80
1351;DHT22;669;50.206;9.998;2022-11-30T06:30:12;5.50;91.90
1351;DHT22;669;50.206;9.998;2022-11-30T06:32:43;5.50;91.80
1351;DHT22;669;50.206;9.998;2022-11-30T06:35:12;5.50;91.70
1351;DHT22;669;50.206;9.998;2022-11-30T06:37:40;5.40;91.40
1351;DHT22;669;50.206;9.998;2022-11-30T06:40:10;5.40;91.60
1351;DHT22;669;50.206;9.998;2022-11-30T06:42:38;5.40;91.40
1351;DHT22;669;50.206;9.998;2022-11-30T06:45:08;5.40;91.70
1351;DHT22;669;50.206;9.998;2022-11-30T06:47:36;5.40;91.70
1351;DHT22;669;50.206;9.998;2022-11-30T06:50:06;5.40;91.70
1351;DHT22;669;50.206;9.998;2022-11-30T06:52:34;5.40;91.60
1351;DHT22;669;50.206;9.998;2022-11-30T06:55:03;5.40;91.80
1351;DHT22;669;50.206;9.998;2022-11-30T06:57:31;5.40;91.80
1351;DHT22;669;50.206;9.998;2022-11-30T06:59:59;5.50;91.80
1351;DHT22;669;50.206;9.998;2022-11-30T07:02:28;5.50;91.90
1351;DHT22;669;50.206;9.998;2022-11-30T07:04:56;5.50;91.90
1351;DHT22;669;50.206;9.998;2022-11-30T07:07:24;5.50;91.90
1351;DHT22;669;50.206;9.998;2022-11-30T07:09:52;5.50;91.90
1351;DHT22;669;50.206;9.998;2022-11-30T07:12:20;5.50;91.80
1351;DHT22;669;50.206;9.998;2022-11-30T07:14:48;5.50;91.90
1351;DHT22;669;50.206;9.998;2022-11-30T07:17:19;5.60;91.90
1351;DHT22;669;50.206;9.998;2022-11-30T07:19:48;5.60;91.90
1351;DHT22;669;50.206;9.998;2022-11-30T07:22:16;5.60;91.90
1351;DHT22;669;50.206;9.998;2022-11-30T07:24:44;5.60;91.90
1351;DHT22;669;50.206;9.998;2022-11-30T07:27:29;5.60;91.90
1351;DHT22;669;50.206;9.998;2022-11-30T07:29:57;5.60;91.90
1351;DHT22;669;50.206;9.998;2022-11-30T07:32:25;5.60;91.90
1351;DHT22;669;50.206;9.998;2022-11-30T07:34:54;5.60;91.90
1351;DHT22;669;50.206;9.998;2022-11-30T07:37:22;5.60;91.70
1351;DHT22;669;50.206;9.998;2022-11-30T07:39:50;5.60;91.90
1351;DHT22;669;50.206;9.998;2022-11-30T07:42:18;5.60;91.90
1351;DHT22;669;50.206;9.998;2022-11-30T07:44:46;5.60;91.90
1351;DHT22;669;50.206;9.998;2022-11-30T07:47:19;5.60;91.90
1351;DHT22;669;50.206;9.998;2022-11-30T07:49:47;5.60;91.90
1351;DHT22;669;50.206;9.998;2022-11-30T07:52:16;5.60;91.90
1351;DHT22;669;50.206;9.998;2022-11-30T07:54:44;5.60;91.90
1351;DHT22;669;50.206;9.998;2022-11-30T07:57:12;5.70;91.90
1351;DHT22;669;50.206;9.998;2022-11-30T07:59:40;5.70;91.90
1351;DHT22;669;50.206;9.998;2022-11-30T08:02:09;5.70;91.90
1351;DHT22;669;50.206;9.998;2022-11-30T08:04:38;5.70;91.90
1351;DHT22;669;50.206;9.998;2022-11-30T08:07:06;5.70;91.90
1351;DHT22;669;50.206;9.998;2022-11-30T08:09:35;5.70;91.90
1351;DHT22;669;50.206;9.998;2022-11-30T08:12:03;5.70;91.90
1351;DHT22;669;50.206;9.998;2022-11-30T08:14:31;5.80;91.80
1351;DHT22;669;50.206;9.998;2022-11-30T08:17:19;5.80;92.30
1351;DHT22;669;50.206;9.998;2022-11-30T08:19:47;5.90;91.90
1351;DHT22;669;50.206;9.998;2022-11-30T08:22:15;5.90;91.80
1351;DHT22;669;50.206;9.998;2022-11-30T08:24:44;5.90;91.80
1351;DHT22;669;50.206;9.998;2022-11-30T08:27:12;5.90;91.70
1351;DHT22;669;50.206;9.998;2022-11-30T08:29:40;5.90;91.50
1351;DHT22;669;50.206;9.998;2022-11-30T08:32:08;5.90;91.60
1351;DHT22;669;50.206;9.998;2022-11-30T08:34:36;6.00;91.30
1351;DHT22;669;50.206;9.998;2022-11-30T08:37:04;5.90;90.80
1351;DHT22;669;50.206;9.998;2022-11-30T08:39:32;5.90;91.10
1351;DHT22;669;50.206;9.998;2022-11-30T08:42:02;5.90;91.40
1351;DHT22;669;50.206;9.998;2022-11-30T08:44:30;6.00;91.30
1351;DHT22;669;50.206;9.998;2022-11-30T08:46:58;5.90;91.30
1351;DHT22;669;50.206;9.998;2022-11-30T08:49:26;6.00;91.60
1351;DHT22;669;50.206;9.998;2022-11-30T08:51:55;6.00;91.60
1351;DHT22;669;50.206;9.998;2022-11-30T08:54:44;6.00;91.40
1351;DHT22;669;50.206;9.998;2022-11-30T08:57:15;5.90;90.40
1351;DHT22;669;50.206;9.998;2022-11-30T08:59:43;5.90;91.10
1351;DHT22;669;50.206;9.998;2022-11-30T09:02:12;5.90;91.60
1351;DHT22;669;50.206;9.998;2022-11-30T09:04:43;5.90;91.70
1351;DHT22;669;50.206;9.998;2022-11-30T09:07:10;5.90;91.40
1351;DHT22;669;50.206;9.998;2022-11-30T09:09:38;5.90;91.70
1351;DHT22;669;50.206;9.998;2022-11-30T09:12:06;6.00;91.70
1351;DHT22;669;50.206;9.998;2022-11-30T09:14:36;6.00;91.50
1351;DHT22;669;50.206;9.998;2022-11-30T09:17:04;6.00;91.20
1351;DHT22;669;50.206;9.998;2022-11-30T09:19:32;6.20;91.50
1351;DHT22;669;50.206;9.998;2022-11-30T09:22:00;6.10;91.00
1351;DHT22;669;50.206;9.998;2022-11-30T09:24:27;6.10;91.00
1351;DHT22;669;50.206;9.998;2022-11-30T09:26:55;6.00;90.30
1351;DHT22;669;50.206;9.998;2022-11-30T09:29:23;6.00;88.90
1351;DHT22;669;50.206;9.998;2022-11-30T09:31:52;5.90;87.90
1351;DHT22;669;50.206;9.998;2022-11-30T09:34:20;5.90;88.10
1351;DHT22;669;50.206;9.998;2022-11-30T09:36:48;5.90;87.90
1351;DHT22;669;50.206;9.998;2022-11-30T09:39:16;6.00;89.40
1351;DHT22;669;50.206;9.998;2022-11-30T09:42:12;6.00;88.20
1351;DHT22;669;50.206;9.998;2022-11-30T09:44:50;6.00;88.50
1351;DHT22;669;50.206;9.998;2022-11-30T09:47:38;6.00;88.10
1351;DHT22;669;50.206;9.998;2022-11-30T09:50:12;6.00;87.40
1351;DHT22;669;50.206;9.998;2022-11-30T09:52:43;6.10;87.50
1351;DHT22;669;50.206;9.998;2022-11-30T09:55:26;6.10;88.40
1351;DHT22;669;50.206;9.998;2022-11-30T09:57:59;6.20;88.50
1351;DHT22;669;50.206;9.998;2022-11-30T10:00:28;6.20;88.40
1351;DHT22;669;50.206;9.998;2022-11-30T10:03:01;6.20;88.70
1351;DHT22;669;50.206;9.998;2022-11-30T10:05:40;6.30;88.80
1351;DHT22;669;50.206;9.998;2022-11-30T10:08:19;6.20;88.00
1351;DHT22;669;50.206;9.998;2022-11-30T10:10:55;6.30;88.80
1351;DHT22;669;50.206;9.998;2022-11-30T10:13:45;6.30;88.60
1351;DHT22;669;50.206;9.998;2022-11-30T10:16:22;6.30;88.40
1351;DHT22;669;50.206;9.998;2022-11-30T10:18:59;6.40;87.50
1351;DHT22;669;50.206;9.998;2022-11-30T10:21:41;6.40;87.10
1351;DHT22;669;50.206;9.998;2022-11-30T10:24:18;6.40;87.00
1351;DHT22;669;50.206;9.998;2022-11-30T10:26:52;6.30;87.10
1351;DHT22;669;50.206;9.998;2022-11-30T10:29:28;6.30;86.40
1351;DHT22;669;50.206;9.998;2022-11-30T10:31:59;6.30;86.50
1351;DHT22;669;50.206;9.998;2022-11-30T10:34:32;6.30;86.80
1351;DHT22;669;50.206;9.998;2022-11-30T10:37:05;6.30;86.70
1351;DHT22;669;50.206;9.998;2022-11-30T10:39:39;6.20;86.70
1351;DHT22;669;50.206;9.998;2022-11-30T10:42:11;6.30;86.70
1351;DHT22;669;50.206;9.998;2022-11-30T10:44:45;6.30;86.10
1351;DHT22;669;50.206;9.998;2022-11-30T10:47:18;6.20;86.30
1351;DHT22;669;50.206;9.998;2022-11-30T10:49:50;6.30;87.00
1351;DHT22;669;50.206;9.998;2022-11-30T10:52:24;6.30;86.90
1351;DHT22;669;50.206;9.998;2022-11-30T10:54:54;6.30;86.50
1351;DHT22;669;50.206;9.998;2022-11-30T10:57:30;6.30;86.80
1351;DHT22;669;50.206;9.998;2022-11-30T11:00:02;6.30;86.50
1351;DHT22;669;50.206;9.998;2022-11-30T11:02:40;6.30;86.00
1351;DHT22;669;50.206;9.998;2022-11-30T11:05:20;6.40;86.00
1351;DHT22;669;50.206;9.998;2022-11-30T11:07:51;6.40;85.90
1351;DHT22;669;50.206;9.998;2022-11-30T11:10:23;6.30;85.90
1351;DHT22;669;50.206;9.998;2022-11-30T11:12:53;6.30;86.30
1351;DHT22;669;50.206;9.998;2022-11-30T11:15:23;6.30;85.80
1351;DHT22;669;50.206;9.998;2022-11-30T11:17:52;6.30;85.80
1351;DHT22;669;50.206;9.998;2022-11-30T11:20:32;6.30;86.90
1351;DHT22;669;50.206;9.998;2022-11-30T11:23:01;6.20;86.20
1351;DHT22;669;50.206;9.998;2022-11-30T11:25:32;6.10;87.60
1351;DHT22;669;50.206;9.998;2022-11-30T11:28:07;6.10;88.00
1351;DHT22;669;50.206;9.998;2022-11-30T11:30:40;6.00;88.40
1351;DHT22;669;50.206;9.998;2022-11-30T11:33:18;6.00;88.10
1351;DHT22;669;50.206;9.998;2022-11-30T11:35:49;6.00;88.10
1351;DHT22;669;50.206;9.998;2022-11-30T11:38:24;5.90;88.50
1351;DHT22;669;50.206;9.998;2022-11-30T11:40:58;5.90;89.20
1351;DHT22;669;50.206;9.998;2022-11-30T11:43:28;5.90;90.00
1351;DHT22;669;50.206;9.998;2022-11-30T11:45:58;5.90;90.00
1351;DHT22;669;50.206;9.998;2022-11-30T11:48:31;5.90;89.90
1351;DHT22;669;50.206;9.998;2022-11-30T11:51:02;6.00;90.30
1351;DHT22;669;50.206;9.998;2022-11-30T11:53:39;6.00;90.20
1351;DHT22;669;50.206;9.998;2022-11-30T11:56:18;6.10;90.10
1351;DHT22;669;50.206;9.998;2022-11-30T11:58:51;6.10;89.70
1351;DHT22;669;50.206;9.998;2022-11-30T12:01:36;6.10;90.00
1351;DHT22;669;50.206;9.998;2022-11-30T12:04:24;6.00;89.60
1351;DHT22;669;50.206;9.998;2022-11-30T12:07:00;6.10;89.20
1351;DHT22;669;50.206;9.998;2022-11-30T12:09:31;6.10;88.80
1351;DHT22;669;50.206;9.998;2022-11-30T12:12:00;6.10;88.80
1351;DHT22;669;50.206;9.998;2022-11-30T12:14:30;6.20;89.40
1351;DHT22;669;50.206;9.998;2022-11-30T12:17:16;6.20;88.70
1351;DHT22;669;50.206;9.998;2022-11-30T12:19:54;6.20;87.90
1351;DHT22;669;50.206;9.998;2022-11-30T12:22:42;6.30;88.50
1351;DHT22;669;50.206;9.998;2022-11-30T12:25:19;6.30;87.20
1351;DHT22;669;50.206;9.998;2022-11-30T12:27:58;6.30;86.60
1351;DHT22;669;50.206;9.998;2022-11-30T12:30:32;6.30;86.70
1351;DHT22;669;50.206;9.998;2022-11-30T12:33:13;6.30;86.40
1351;DHT22;669;50.206;9.998;2022-11-30T12:35:49;6.30;86.50
1351;DHT22;669;50.206;9.998;2022-11-30T12:38:30;6.30;86.40
1351;DHT22;669;50.206;9.998;2022-11-30T12:41:06;6.30;86.60
1351;DHT22;669;50.206;9.998;2022-11-30T12:43:44;6.30;85.20
1351;DHT22;669;50.206;9.998;2022-11-30T12:46:18;6.20;83.90
1351;DHT22;669;50.206;9.998;2022-11-30T12:48:57;6.20;85.00
1351;DHT22;669;50.206;9.998;2022-11-30T12:51:31;6.10;84.90
1351;DHT22;669;50.206;9.998;2022-11-30T12:54:07;6.00;84.80
1351;DHT22;669;50.206;9.998;2022-11-30T12:56:44;6.00;85.20
1351;DHT22;669;50.206;9.998;2022-11-30T12:59:20;6.10;85.60
1351;DHT22;669;50.206;9.998;2022-11-30T13:02:07;6.10;85.60
1351;DHT22;669;50.206;9.998;2022-11-30T13:04:43;6.10;85.60
1351;DHT22;669;50.206;9.998;2022-11-30T13:07:21;6.10;85.20
1351;DHT22;669;50.206;9.998;2022-11-30T13:09:56;6.00;85.40
1351;DHT22;669;50.206;9.998;2022-11-30T13:12:28;6.00;85.20
1351;DHT22;669;50.206;9.998;2022-11-30T13:15:05;6.00;85.10
1351;DHT22;669;50.206;9.998;2022-11-30T13:17:41;6.00;85.40
1351;DHT22;669;50.206;9.998;2022-11-30T13:20:18;6.00;85.50
1351;DHT22;669;50.206;9.998;2022-11-30T13:22:51;6.00;84.40
1351;DHT22;669;50.206;9.998;2022-11-30T13:25:27;6.00;84.20
1351;DHT22;669;50.206;9.998;2022-11-30T13:28:26;6.00;84.20
1351;DHT22;669;50.206;9.998;2022-11-30T13:31:02;6.00;83.20
1351;DHT22;669;50.206;9.998;2022-11-30T13:33:45;5.90;82.30
1351;DHT22;669;50.206;9.998;2022-11-30T13:36:30;5.90;83.00
1351;DHT22;669;50.206;9.998;2022-11-30T13:39:28;5.90;83.50
1351;DHT22;669;50.206;9.998;2022-11-30T13:42:28;5.90;83.50
1351;DHT22;669;50.206;9.998;2022-11-30T13:44:59;6.00;83.40
1351;DHT22;669;50.206;9.998;2022-11-30T13:47:45;6.00;83.60
1351;DHT22;669;50.206;9.998;2022-11-30T13:50:22;6.00;84.00
1351;DHT22;669;50.206;9.998;2022-11-30T13:53:18;6.00;83.90
1351;DHT22;669;50.206;9.998;2022-11-30T14:05:36;6.00;83.60
1351;DHT22;669;50.206;9.998;2022-11-30T14:08:32;6.00;84.10
1351;DHT22;669;50.206;9.998;2022-11-30T14:11:37;6.00;83.60
1351;DHT22;669;50.206;9.998;2022-11-30T14:14:39;6.00;83.30
1351;DHT22;669;50.206;9.998;2022-11-30T14:17:24;6.00;83.00
1351;DHT22;669;50.206;9.998;2022-11-30T14:19:57;6.00;83.30
1351;DHT22;669;50.206;9.998;2022-11-30T14:22:28;6.00;83.60
1351;DHT22;669;50.206;9.998;2022-11-30T14:24:56;6.00;83.80
1351;DHT22;669;50.206;9.998;2022-11-30T14:27:26;6.00;83.30
1351;DHT22;669;50.206;9.998;2022-11-30T14:30:00;6.00;83.80
1351;DHT22;669;50.206;9.998;2022-11-30T14:32:35;6.00;84.00
1351;DHT22;669;50.206;9.998;2022-11-30T14:35:10;6.00;83.90
1351;DHT22;669;50.206;9.998;2022-11-30T14:37:45;6.00;84.70
1351;DHT22;669;50.206;9.998;2022-11-30T14:40:20;6.00;84.40
1351;DHT22;669;50.206;9.998;2022-11-30T14:42:50;6.00;83.60
1351;DHT22;669;50.206;9.998;2022-11-30T14:45:23;6.00;84.40
1351;DHT22;669;50.206;9.998;2022-11-30T14:47:57;6.00;83.80
1351;DHT22;669;50.206;9.998;2022-11-30T14:50:31;5.90;84.40
1351;DHT22;669;50.206;9.998;2022-11-30T14:53:16;5.90;84.60
1351;DHT22;669;50.206;9.998;2022-11-30T14:55:50;6.00;84.60
1351;DHT22;669;50.206;9.998;2022-11-30T14:58:24;6.00;84.40
1351;DHT22;669;50.206;9.998;2022-11-30T15:00:55;5.90;84.00
1351;DHT22;669;50.206;9.998;2022-11-30T15:03:27;5.90;85.00
1351;DHT22;669;50.206;9.998;2022-11-30T15:06:04;5.90;85.40
1351;DHT22;669;50.206;9.998;2022-11-30T15:08:37;5.90;86.10
1351;DHT22;669;50.206;9.998;2022-11-30T15:11:08;5.80;85.70
1351;DHT22;669;50.206;9.998;2022-11-30T15:13:38;5.80;85.70
1351;DHT22;669;50.206;9.998;2022-11-30T15:16:09;5.80;85.80
1351;DHT22;669;50.206;9.998;2022-11-30T15:18:41;5.80;85.40
1351;DHT22;669;50.206;9.998;2022-11-30T15:21:11;5.80;85.30
1351;DHT22;669;50.206;9.998;2022-11-30T15:23:44;5.80;85.50
1351;DHT22;669;50.206;9.998;2022-11-30T15:26:19;5.80;85.90
1351;DHT22;669;50.206;9.998;2022-11-30T15:28:55;5.80;85.70
1351;DHT22;669;50.206;9.998;2022-11-30T15:31:27;5.70;86.40
1351;DHT22;669;50.206;9.998;2022-11-30T15:33:59;5.80;87.00
1351;DHT22;669;50.206;9.998;2022-11-30T15:36:32;5.80;87.50
1351;DHT22;669;50.206;9.998;2022-11-30T15:39:03;5.80;87.80
1351;DHT22;669;50.206;9.998;2022-11-30T15:41:33;5.80;88.10
1351;DHT22;669;50.206;9.998;2022-11-30T15:44:01;5.90;88.20
1351;DHT22;669;50.206;9.998;2022-11-30T15:46:31;5.80;88.70
1351;DHT22;669;50.206;9.998;2022-11-30T15:49:05;5.80;88.80
1351;DHT22;669;50.206;9.998;2022-11-30T15:51:38;5.80;88.50
1351;DHT22;669;50.206;9.998;2022-11-30T15:54:08;5.80;88.80
1351;DHT22;669;50.206;9.998;2022-11-30T15:56:36;5.80;89.10
1351;DHT22;669;50.206;9.998;2022-11-30T15:59:05;5.80;89.50
1351;DHT22;669;50.206;9.998;2022-11-30T16:01:54;5.80;89.90
1351;DHT22;669;50.206;9.998;2022-11-30T16:07:48;5.80;90.10
1351;DHT22;669;50.206;9.998;2022-11-30T16:10:21;5.80;90.20
1351;DHT22;669;50.206;9.998;2022-11-30T16:12:51;5.80;90.30
1351;DHT22;669;50.206;9.998;2022-11-30T16:15:21;5.80;90.20
1351;DHT22;669;50.206;9.998;2022-11-30T16:17:50;5.80;90.50
1351;DHT22;669;50.206;9.998;2022-11-30T16:20:19;5.80;90.60
1351;DHT22;669;50.206;9.998;2022-11-30T16:22:48;5.80;90.60
1351;DHT22;669;50.206;9.998;2022-11-30T16:25:19;5.80;90.50
1351;DHT22;669;50.206;9.998;2022-11-30T16:27:48;5.70;90.20
1351;DHT22;669;50.206;9.998;2022-11-30T16:30:18;5.70;90.40
1351;DHT22;669;50.206;9.998;2022-11-30T16:32:46;5.70;90.50
1351;DHT22;669;50.206;9.998;2022-11-30T16:35:20;5.70;90.50
1351;DHT22;669;50.206;9.998;2022-11-30T16:37:48;5.60;90.60
1351;DHT22;669;50.206;9.998;2022-11-30T16:40:18;5.60;90.80
1351;DHT22;669;50.206;9.998;2022-11-30T16:42:47;5.60;91.00
1351;DHT22;669;50.206;9.998;2022-11-30T16:45:18;5.70;90.90
1351;DHT22;669;50.206;9.998;2022-11-30T16:47:46;5.60;90.70
1351;DHT22;669;50.206;9.998;2022-11-30T16:50:14;5.60;91.20
1351;DHT22;669;50.206;9.998;2022-11-30T16:52:42;5.60;91.40
1351;DHT22;669;50.206;9.998;2022-11-30T16:55:12;5.70;91.40
1351;DHT22;669;50.206;9.998;2022-11-30T16:57:42;5.60;91.20
1351;DHT22;669;50.206;9.998;2022-11-30T17:00:12;5.60;91.10
1351;DHT22;669;50.206;9.998;2022-11-30T17:02:43;5.60;91.10
1351;DHT22;669;50.206;9.998;2022-11-30T17:05:13;5.50;91.00
1351;DHT22;669;50.206;9.998;2022-11-30T17:07:41;5.50;90.80
1351;DHT22;669;50.206;9.998;2022-11-30T17:10:10;5.50;91.00
1351;DHT22;669;50.206;9.998;2022-11-30T17:12:39;5.40;90.90
1351;DHT22;669;50.206;9.998;2022-11-30T17:15:13;5.40;90.80
1351;DHT22;669;50.206;9.998;2022-11-30T17:17:42;5.40;90.90